createdAt,value
2023-02-21T07:16:32.973Z,0.70
2023-02-21T07:17:32.992Z,0.73
2023-02-21T07:18:32.901Z,0.73
2023-02-21T07:19:32.880Z,0.72
2023-02-21T07:20:32.871Z,0.73
2023-02-21T07:21:32.850Z,0.70
2023-02-21T07:22:32.839Z,0.74
2023-02-21T07:23:32.832Z,0.69
2023-02-21T07:24:33.248Z,0.72
2023-02-21T07:25:32.815Z,0.74
2023-02-21T07:26:32.797Z,0.73
2023-02-21T07:27:32.788Z,0.74
2023-02-21T07:28:32.771Z,0.73
2023-02-21T07:29:32.770Z,0.73
2023-02-21T07:30:32.827Z,0.73
2023-02-21T07:31:32.913Z,0.72
2023-02-21T07:32:32.766Z,0.73
2023-02-21T07:33:32.723Z,0.70
2023-02-21T07:34:32.712Z,0.73
2023-02-21T07:35:34.278Z,0.73
2023-02-21T07:36:32.618Z,0.73
2023-02-21T07:37:32.564Z,0.73
2023-02-21T07:38:32.521Z,0.73
2023-02-21T07:39:32.469Z,0.75
2023-02-21T07:40:32.428Z,0.74
2023-02-21T07:41:32.380Z,0.74
2023-02-21T07:42:32.326Z,0.72
2023-02-21T07:43:32.861Z,0.74
2023-02-21T07:44:32.285Z,0.70
2023-02-21T07:45:32.190Z,0.70
2023-02-21T07:46:32.175Z,0.71
2023-02-21T07:47:32.086Z,0.72
2023-02-21T07:48:32.041Z,0.73
2023-02-21T07:49:31.996Z,0.71
2023-02-21T07:50:31.943Z,0.73
2023-02-21T07:51:31.900Z,0.71
2023-02-21T07:52:31.866Z,0.73
2023-02-21T07:53:31.843Z,0.74
2023-02-21T07:54:31.838Z,0.71
2023-02-21T07:55:31.818Z,0.74
2023-02-21T07:56:31.804Z,0.73
2023-02-21T07:57:31.795Z,0.74
2023-02-21T07:58:31.775Z,0.74
2023-02-21T07:59:31.777Z,0.72
2023-02-21T08:00:31.754Z,0.72
2023-02-21T08:01:31.805Z,0.71
2023-02-21T08:02:31.800Z,0.72
2023-02-21T08:03:31.812Z,0.73
2023-02-21T08:04:31.921Z,0.73
2023-02-21T08:05:31.733Z,0.73
2023-02-21T08:06:31.686Z,0.73
2023-02-21T08:07:31.682Z,0.73
2023-02-21T08:08:31.676Z,0.71
2023-02-21T08:09:31.885Z,0.74
2023-02-21T08:10:31.665Z,0.72
2023-02-21T08:11:31.648Z,0.75
2023-02-21T08:12:31.646Z,0.72
2023-02-21T08:13:31.632Z,0.72
2023-02-21T08:14:32.381Z,0.71
2023-02-21T08:15:31.610Z,0.72
2023-02-21T08:16:34.453Z,0.72
2023-02-21T08:17:31.544Z,0.71
2023-02-21T08:18:31.514Z,0.69
2023-02-21T08:19:31.456Z,0.74
2023-02-21T08:20:31.436Z,0.80
2023-02-21T08:21:31.372Z,0.86
2023-02-21T08:22:31.332Z,0.93
2023-02-21T08:23:31.363Z,0.87
2023-02-21T08:24:31.228Z,0.93
2023-02-21T08:25:31.175Z,0.95
2023-02-21T08:26:31.155Z,0.96
2023-02-21T08:27:31.090Z,0.96
2023-02-21T08:28:31.026Z,0.97
2023-02-21T08:29:30.983Z,0.98
2023-02-21T08:30:30.967Z,1.02
2023-02-21T08:31:30.882Z,1.04
2023-02-21T08:32:30.857Z,1.09
2023-02-21T08:33:31.718Z,1.10
2023-02-21T08:34:30.723Z,1.12
2023-02-21T08:35:30.678Z,1.12
2023-02-21T08:36:30.622Z,1.26
2023-02-21T08:37:30.569Z,1.29
2023-02-21T08:38:30.515Z,1.28
2023-02-21T08:39:30.540Z,1.33
2023-02-21T08:40:31.304Z,1.37
2023-02-21T08:41:30.381Z,1.44
2023-02-21T08:42:30.346Z,1.50
2023-02-21T08:43:30.294Z,1.56
2023-02-21T08:44:30.213Z,1.63
2023-02-21T08:45:30.163Z,2.73
2023-02-21T08:46:30.198Z,2.36
2023-02-21T08:47:30.063Z,2.38
2023-02-21T08:48:30.018Z,2.29
2023-02-21T08:49:29.977Z,2.09
2023-02-21T08:50:29.921Z,2.06
2023-02-21T08:51:29.858Z,1.89
2023-02-21T08:52:29.798Z,1.80
2023-02-21T08:53:29.749Z,1.81
2023-02-21T08:54:29.694Z,1.55
2023-02-21T08:55:29.647Z,1.34
2023-02-21T08:56:29.630Z,1.22
2023-02-21T08:57:29.551Z,1.30
2023-02-21T08:58:29.502Z,1.19
2023-02-21T08:59:29.502Z,1.10
2023-02-21T09:00:29.413Z,1.06
2023-02-21T09:01:29.479Z,0.85
2023-02-21T09:02:29.310Z,0.89
2023-02-21T09:03:29.246Z,0.89
2023-02-21T09:04:29.264Z,0.87
2023-02-21T09:05:29.147Z,0.86
2023-02-21T09:06:30.367Z,0.76
2023-02-21T09:07:29.050Z,0.75
2023-02-21T09:08:28.985Z,0.70
2023-02-21T09:09:28.934Z,0.69
2023-02-21T09:10:28.965Z,0.79
2023-02-21T09:11:28.857Z,0.87
2023-02-21T09:12:28.793Z,0.91
2023-02-21T09:13:28.755Z,0.99
2023-02-21T09:14:28.746Z,1.10
2023-02-21T09:15:29.471Z,1.23
2023-02-21T09:16:28.785Z,1.32
2023-02-21T09:17:28.726Z,0.78
2023-02-21T09:18:28.809Z,0.73
2023-02-21T09:19:28.694Z,0.83
2023-02-21T09:20:28.725Z,0.63
2023-02-21T09:21:28.750Z,0.75
2023-02-21T09:22:28.780Z,0.62
2023-02-21T09:23:28.776Z,0.48
2023-02-21T09:24:28.770Z,0.38
2023-02-21T09:25:28.761Z,0.35
2023-02-21T09:26:28.804Z,0.45
2023-02-21T09:27:28.838Z,0.53
2023-02-21T09:28:28.848Z,0.52
2023-02-21T09:29:37.042Z,0.50
2023-02-21T09:30:29.888Z,0.50
2023-02-21T09:31:28.857Z,0.50
2023-02-21T09:32:28.853Z,0.50
2023-02-21T09:33:28.737Z,0.59
2023-02-21T09:34:28.786Z,0.75
2023-02-21T09:35:28.664Z,0.76
2023-02-21T09:36:28.679Z,0.79
2023-02-21T09:37:28.611Z,0.87
2023-02-21T09:38:28.560Z,0.92
2023-02-21T09:39:28.522Z,0.98
2023-02-21T09:40:28.482Z,1.08
2023-02-21T09:41:28.428Z,1.11
2023-02-21T09:42:28.388Z,1.14
2023-02-21T09:43:28.346Z,1.17
2023-02-21T09:44:28.298Z,1.24
2023-02-21T09:45:28.281Z,1.32
2023-02-21T09:46:28.203Z,1.34
2023-02-21T09:47:28.221Z,1.37
2023-02-21T09:48:28.318Z,1.52
2023-02-21T09:49:28.253Z,1.62
2023-02-21T09:50:28.255Z,1.86
2023-02-21T09:51:28.259Z,1.87
2023-02-21T09:52:28.906Z,1.97
2023-02-21T09:53:28.258Z,1.96
2023-02-21T09:54:28.239Z,2.08
2023-02-21T09:55:30.502Z,2.27
2023-02-21T09:56:28.266Z,2.60
2023-02-21T09:57:28.220Z,2.86
2023-02-21T09:58:28.194Z,2.92
2023-02-21T09:59:28.213Z,3.04
2023-02-21T10:00:28.415Z,3.09
2023-02-21T10:01:28.170Z,3.16
2023-02-21T10:02:29.056Z,3.16
2023-02-21T10:03:28.000Z,3.17
2023-02-21T10:04:27.958Z,3.21
2023-02-21T10:05:27.951Z,3.35
2023-02-21T10:06:27.866Z,3.74
2023-02-21T10:07:27.800Z,3.80
2023-02-21T10:08:27.740Z,3.91
2023-02-21T10:09:27.706Z,3.83
2023-02-21T10:10:27.639Z,3.92
2023-02-21T10:11:27.582Z,4.08
2023-02-21T10:12:27.533Z,4.16
2023-02-21T10:13:27.479Z,4.23
2023-02-21T10:14:27.417Z,4.46
2023-02-21T10:15:27.359Z,4.75
2023-02-21T10:16:27.321Z,4.94
2023-02-21T10:17:27.231Z,5.03
2023-02-21T10:18:27.172Z,5.14
2023-02-21T10:19:27.140Z,5.13
2023-02-21T10:20:27.048Z,5.30
2023-02-21T10:21:27.043Z,5.30
2023-02-21T10:22:26.957Z,5.46
2023-02-21T10:23:26.861Z,5.96
2023-02-21T10:24:26.802Z,5.88
2023-02-21T10:25:26.733Z,5.83
2023-02-21T10:26:26.706Z,6.03
2023-02-21T10:27:27.338Z,6.35
2023-02-21T10:28:26.538Z,6.59
2023-02-21T10:29:26.472Z,6.79
2023-02-21T10:30:26.577Z,6.86
2023-02-21T10:31:26.414Z,6.76
2023-02-21T10:32:26.331Z,7.15
2023-02-21T10:33:26.317Z,7.19
2023-02-21T10:34:26.307Z,7.33
2023-02-21T10:35:26.424Z,7.48
2023-02-21T10:36:26.302Z,7.67
2023-02-21T10:37:26.444Z,7.48
2023-02-21T10:38:26.378Z,7.86
2023-02-21T10:39:26.325Z,8.00
2023-02-21T10:40:26.320Z,8.21
2023-02-21T10:41:26.304Z,8.37
2023-02-21T10:42:26.352Z,8.63
2023-02-21T10:43:26.299Z,8.94
2023-02-21T10:44:26.298Z,9.04
2023-02-21T10:45:26.294Z,9.27
2023-02-21T10:46:26.286Z,9.62
2023-02-21T10:47:26.322Z,9.81
2023-02-21T10:48:26.244Z,10.03
2023-02-21T10:49:26.228Z,10.33
2023-02-21T10:50:26.212Z,10.46
2023-02-21T10:51:26.197Z,10.63
2023-02-21T10:52:26.184Z,10.62
2023-02-21T10:53:26.168Z,11.00
2023-02-21T10:54:26.137Z,11.04
2023-02-21T10:55:33.052Z,11.28
2023-02-21T10:56:27.049Z,11.30
2023-02-21T10:57:25.980Z,11.41
2023-02-21T10:58:25.899Z,11.65
2023-02-21T10:59:25.835Z,12.05
2023-02-21T11:00:25.762Z,13.09
2023-02-21T11:01:25.883Z,13.09
2023-02-21T11:02:25.698Z,13.37
2023-02-21T11:03:25.552Z,14.23
2023-02-21T11:04:25.487Z,14.91
2023-02-21T11:05:25.419Z,15.50
2023-02-21T11:06:27.894Z,15.91
2023-02-21T11:07:25.497Z,16.56
2023-02-21T11:08:25.439Z,16.92
2023-02-21T11:09:25.378Z,17.26
2023-02-21T11:10:25.324Z,17.80
2023-02-21T11:11:25.277Z,16.81
2023-02-21T11:12:25.340Z,17.67
2023-02-21T11:13:25.216Z,18.11
2023-02-21T11:14:25.149Z,18.10
2023-02-21T11:15:25.086Z,18.13
2023-02-21T11:16:25.132Z,17.48
2023-02-21T11:17:25.009Z,17.53
2023-02-21T11:18:25.091Z,17.11
2023-02-21T11:19:24.949Z,17.40
2023-02-21T11:20:24.907Z,17.53
2023-02-21T11:21:24.875Z,17.25
2023-02-21T11:22:24.850Z,17.25
2023-02-21T11:23:24.817Z,17.29
2023-02-21T11:24:24.863Z,17.27
2023-02-21T11:25:25.443Z,17.31
2023-02-21T11:26:24.765Z,17.17
2023-02-21T11:27:24.730Z,16.83
2023-02-21T11:28:25.432Z,16.56
2023-02-21T11:29:24.691Z,16.65
2023-02-21T11:30:24.709Z,16.27
2023-02-21T11:31:24.814Z,16.28
2023-02-21T11:32:25.442Z,15.97
2023-02-21T11:33:24.607Z,16.10
2023-02-21T11:34:24.564Z,15.78
2023-02-21T11:35:24.564Z,15.99
2023-02-21T11:36:24.538Z,15.77
2023-02-21T11:37:24.503Z,15.57
2023-02-21T11:38:24.486Z,15.59
2023-02-21T11:39:24.452Z,15.43
2023-02-21T11:40:24.418Z,15.47
2023-02-21T11:41:24.399Z,15.32
2023-02-21T11:42:24.362Z,15.01
2023-02-21T11:43:24.329Z,14.99
2023-02-21T11:44:24.297Z,14.87
2023-02-21T11:45:24.262Z,14.60
2023-02-21T11:46:24.388Z,14.50
2023-02-21T11:47:24.200Z,14.55
2023-02-21T11:48:24.162Z,14.49
2023-02-21T11:49:24.118Z,14.05
2023-02-21T11:50:24.086Z,14.45
2023-02-21T11:51:24.033Z,14.25
2023-02-21T11:52:23.996Z,13.85
2023-02-21T11:53:23.974Z,14.20
2023-02-21T11:54:23.919Z,13.86
2023-02-21T11:55:26.264Z,13.87
2023-02-21T11:56:24.015Z,13.66
2023-02-21T11:57:23.962Z,13.58
2023-02-21T11:58:23.917Z,13.47
2023-02-21T11:59:23.859Z,13.75
2023-02-21T12:00:23.836Z,13.44
2023-02-21T12:01:23.752Z,13.46
2023-02-21T12:02:23.800Z,12.89
2023-02-21T12:03:23.684Z,13.07
2023-02-21T12:04:23.604Z,13.30
2023-02-21T12:05:23.547Z,12.97
2023-02-21T12:06:23.511Z,12.79
2023-02-21T12:07:23.439Z,12.43
2023-02-21T12:08:23.399Z,12.57
2023-02-21T12:09:23.325Z,12.62
2023-02-21T12:10:23.261Z,12.36
2023-02-21T12:11:23.200Z,12.56
2023-02-21T12:12:23.134Z,12.20
2023-02-21T12:13:23.077Z,12.18
2023-02-21T12:14:23.023Z,12.10
2023-02-21T12:15:22.940Z,12.04
2023-02-21T12:16:22.880Z,12.10
2023-02-21T12:17:22.814Z,12.06
2023-02-21T12:18:22.746Z,11.78
2023-02-21T12:19:22.668Z,11.83
2023-02-21T12:20:22.679Z,11.75
2023-02-21T12:21:22.535Z,11.76
2023-02-21T12:22:22.459Z,11.72
2023-02-21T12:23:22.404Z,11.53
2023-02-21T12:24:22.317Z,11.65
2023-02-21T12:25:22.255Z,11.46
2023-02-21T12:26:22.181Z,11.33
2023-02-21T12:27:22.136Z,11.45
2023-02-21T12:28:22.046Z,11.35
2023-02-21T12:29:21.970Z,11.26
2023-02-21T12:30:21.918Z,11.20
2023-02-21T12:31:21.953Z,11.26
2023-02-21T12:32:21.836Z,11.27
2023-02-21T12:33:21.741Z,11.14
2023-02-21T12:44:21.971Z,10.51
2023-02-21T14:22:16.188Z,7.53
2023-02-21T14:23:16.100Z,7.45
2023-02-21T14:24:16.029Z,7.44
2023-02-21T14:25:15.957Z,7.43
2023-02-21T14:26:16.185Z,7.39
2023-02-21T14:27:15.813Z,7.35
2023-02-21T14:28:15.762Z,7.35
2023-02-21T14:29:15.678Z,7.28
2023-02-21T14:30:15.605Z,7.22
2023-02-21T14:31:15.870Z,7.33
2023-02-21T14:32:15.574Z,7.22
2023-02-21T14:33:17.141Z,7.23
2023-02-21T14:34:15.436Z,7.17
2023-02-21T14:35:15.351Z,7.12
2023-02-21T14:36:15.284Z,7.06
2023-02-21T14:37:15.221Z,7.05
2023-02-21T14:38:15.167Z,6.96
2023-02-21T14:39:15.111Z,6.94
2023-02-21T14:40:15.077Z,6.93
2023-02-21T14:41:15.318Z,6.91
2023-02-21T14:42:14.958Z,6.80
2023-02-21T14:43:14.931Z,6.71
2023-02-21T14:44:14.876Z,6.76
2023-02-21T14:45:14.831Z,6.76
2023-02-21T14:46:14.807Z,6.66
2023-02-21T14:47:15.517Z,6.66
2023-02-21T14:48:14.745Z,6.56
2023-02-21T14:49:17.113Z,6.69
2023-02-21T14:50:14.898Z,6.54
2023-02-21T14:51:15.210Z,6.54
2023-02-21T14:52:14.837Z,6.62
2023-02-21T14:53:14.815Z,6.46
2023-02-21T14:54:14.805Z,6.56
2023-02-21T14:55:14.787Z,6.48
2023-02-21T14:56:14.776Z,6.50
2023-02-21T14:57:14.756Z,6.37
2023-02-21T14:58:14.765Z,6.42
2023-02-21T14:59:14.844Z,6.43
2023-02-21T15:00:14.768Z,6.33
2023-02-21T15:01:15.279Z,6.38
2023-02-21T15:02:14.768Z,6.29
2023-02-21T15:03:14.751Z,6.38
2023-02-21T15:04:14.760Z,6.23
2023-02-21T15:05:14.688Z,6.12
2023-02-21T15:06:14.662Z,6.18
2023-02-21T15:07:14.649Z,6.16
2023-02-21T15:08:15.026Z,6.17
2023-02-21T15:09:15.525Z,6.00
2023-02-21T15:10:14.556Z,6.19
2023-02-21T15:11:15.281Z,6.09
2023-02-21T15:12:14.356Z,6.07
2023-02-21T15:13:14.288Z,6.13
2023-02-21T15:14:14.228Z,6.10
2023-02-21T15:15:14.177Z,6.17
2023-02-21T15:16:14.163Z,5.97
2023-02-21T15:17:14.081Z,6.01
2023-02-21T15:18:14.022Z,6.11
2023-02-21T15:19:13.977Z,6.02
2023-02-21T15:20:13.938Z,6.12
2023-02-21T15:21:13.988Z,5.99
2023-02-21T15:22:13.844Z,6.05
2023-02-21T15:23:13.810Z,6.02
2023-02-21T15:24:13.759Z,6.00
2023-02-21T15:25:13.725Z,5.99
2023-02-21T15:26:13.689Z,5.95
2023-02-21T15:27:15.452Z,5.84
2023-02-21T15:28:13.611Z,5.83
2023-02-21T15:29:13.589Z,5.90
2023-02-21T15:30:13.592Z,5.79
2023-02-21T15:31:13.711Z,5.82
2023-02-21T15:32:13.498Z,5.74
2023-02-21T15:33:13.470Z,5.80
2023-02-21T15:34:13.449Z,5.76
2023-02-21T15:35:13.426Z,5.84
2023-02-21T15:36:13.540Z,5.84
2023-02-21T15:37:13.448Z,5.75
2023-02-21T15:38:13.353Z,5.74
2023-02-21T15:39:13.342Z,5.73
2023-02-21T15:40:13.318Z,5.66
2023-02-21T15:41:13.524Z,5.74
2023-02-21T15:42:13.278Z,5.72
2023-02-21T15:43:13.260Z,5.55
2023-02-21T15:44:13.261Z,5.56
2023-02-21T15:45:13.236Z,5.55
2023-02-21T15:46:13.335Z,5.54
2023-02-21T15:47:13.226Z,5.50
2023-02-21T15:48:13.212Z,5.50
2023-02-21T15:49:13.202Z,5.52
2023-02-21T15:50:13.206Z,5.58
2023-02-21T15:51:13.435Z,5.40
2023-02-21T15:52:13.245Z,5.49
2023-02-21T15:53:13.249Z,5.39
2023-02-21T15:54:13.182Z,5.50
2023-02-21T15:55:13.184Z,5.44
2023-02-21T15:56:13.267Z,5.40
2023-02-21T15:57:14.031Z,5.47
2023-02-21T15:58:13.179Z,5.41
2023-02-21T15:59:13.189Z,5.42
2023-02-21T16:00:13.174Z,5.48
2023-02-21T16:01:13.377Z,5.38
2023-02-21T16:02:13.425Z,5.28
2023-02-21T16:03:13.189Z,5.43
2023-02-21T16:04:13.205Z,5.32
2023-02-21T16:05:13.203Z,5.30
2023-02-21T16:06:13.274Z,5.30
2023-02-21T16:07:13.218Z,5.29
2023-02-21T16:08:13.218Z,5.21
2023-02-21T16:09:13.225Z,5.24
2023-02-21T16:10:13.223Z,5.14
2023-02-21T16:11:13.434Z,5.23
2023-02-21T16:12:13.231Z,5.24
2023-02-21T16:13:13.221Z,5.23
2023-02-21T16:14:13.233Z,5.27
2023-02-21T16:15:13.207Z,5.11
2023-02-21T16:16:13.332Z,5.09
2023-02-21T16:17:13.293Z,5.10
2023-02-21T16:18:13.184Z,5.00
2023-02-21T16:19:13.180Z,5.03
2023-02-21T16:20:13.153Z,4.97
2023-02-21T16:21:13.346Z,5.04
2023-02-21T16:22:13.096Z,4.95
2023-02-21T16:23:14.044Z,4.97
2023-02-21T16:24:13.027Z,5.04
2023-02-21T16:25:12.998Z,4.97
2023-02-21T16:26:12.996Z,4.92
2023-02-21T16:27:12.983Z,4.93
2023-02-21T16:28:12.934Z,4.85
2023-02-21T16:29:12.877Z,4.86
2023-02-21T16:30:12.842Z,4.87
2023-02-21T16:31:12.849Z,4.84
2023-02-21T16:32:13.121Z,4.82
2023-02-21T16:33:12.638Z,4.82
2023-02-21T16:34:12.596Z,4.72
2023-02-21T16:35:12.528Z,4.76
2023-02-21T16:36:12.561Z,4.69
2023-02-21T16:37:12.435Z,4.76
2023-02-21T16:38:12.383Z,4.66
2023-02-21T16:39:12.329Z,4.64
2023-02-21T16:40:12.273Z,4.69
2023-02-21T16:41:14.123Z,4.60
2023-02-21T16:42:12.162Z,4.61
2023-02-21T16:43:12.091Z,4.59
2023-02-21T16:44:12.037Z,4.59
2023-02-21T16:45:11.980Z,4.59
2023-02-21T16:46:12.011Z,4.58
2023-02-21T16:47:11.867Z,4.58
2023-02-21T16:48:12.065Z,4.49
2023-02-21T16:49:11.757Z,4.48
2023-02-21T17:16:10.262Z,4.07
2023-02-21T17:19:10.057Z,4.01
2023-02-21T17:20:10.026Z,4.04
2023-02-21T17:21:09.945Z,3.99
2023-02-21T17:22:09.902Z,4.03
2023-02-21T17:23:09.855Z,4.01
2023-02-21T17:24:09.765Z,4.00
2023-02-21T17:25:09.714Z,4.01
2023-02-21T17:26:09.664Z,3.98
2023-02-21T17:27:09.597Z,3.95
2023-02-21T21:23:08.984Z,2.16
2023-02-21T21:24:08.944Z,2.16
2023-02-21T21:25:08.957Z,2.19
2023-02-21T21:26:08.943Z,2.16
2023-02-21T21:27:09.196Z,2.10
2023-02-21T21:28:08.933Z,2.18
2023-02-21T21:29:08.949Z,2.18
2023-02-21T21:30:08.965Z,2.12
2023-02-21T21:31:09.013Z,2.16
2023-02-21T21:32:08.931Z,2.19
2023-02-21T21:33:08.862Z,2.06
2023-02-21T21:34:08.996Z,2.06
2023-02-21T21:35:08.868Z,2.08
2023-02-21T21:36:08.802Z,2.09
2023-02-21T21:37:08.819Z,2.18
2023-02-21T21:38:08.743Z,2.08
2023-02-21T21:39:08.721Z,2.07
2023-02-21T21:40:08.702Z,2.12
2023-02-21T21:41:08.708Z,2.06
2023-02-21T21:42:08.765Z,2.08
2023-02-21T21:43:08.655Z,2.05
2023-02-21T21:44:08.625Z,2.05
2023-02-21T21:45:08.624Z,2.05
2023-02-21T21:46:08.631Z,2.11
2023-02-21T21:47:08.619Z,2.04
2023-02-21T21:48:08.640Z,2.04
2023-02-21T21:49:08.676Z,2.07
2023-02-21T21:50:08.647Z,2.07
2023-02-21T21:51:08.595Z,2.05
2023-02-21T21:52:08.744Z,2.01
2023-02-21T21:53:08.555Z,2.09
2023-02-21T21:54:08.570Z,2.01
2023-02-21T21:55:08.550Z,1.96
2023-02-21T21:56:08.595Z,2.03
2023-02-21T21:57:08.489Z,2.04
2023-02-21T21:58:08.497Z,2.01
2023-02-21T21:59:08.467Z,2.03
2023-02-21T22:00:08.436Z,2.05
2023-02-21T22:01:08.475Z,1.98
2023-02-21T22:02:08.371Z,1.92
2023-02-21T22:03:08.343Z,1.99
2023-02-21T22:04:08.306Z,1.91
2023-02-21T22:05:08.282Z,1.94
2023-02-21T22:06:08.305Z,1.99
2023-02-21T22:07:08.207Z,2.07
2023-02-21T22:08:08.169Z,2.03
2023-02-21T23:31:05.631Z,1.62
2023-02-21T23:32:05.573Z,1.65
2023-02-21T23:33:05.532Z,1.53
2023-02-21T23:34:05.490Z,1.70
2023-02-21T23:35:05.448Z,1.59
2023-02-21T23:36:05.440Z,1.63
2023-02-21T23:37:05.395Z,1.63
2023-02-21T23:38:05.352Z,1.53
2023-02-21T23:40:05.281Z,1.62
2023-02-21T23:41:05.318Z,1.62
2023-02-21T23:42:05.214Z,1.55
2023-02-21T23:43:05.186Z,1.64
2023-02-21T23:44:05.151Z,1.62
2023-02-21T23:45:05.112Z,1.51
2023-02-21T23:46:05.083Z,1.51
2023-02-21T23:47:05.035Z,1.59
2023-02-21T23:48:05.014Z,1.62
2023-02-21T23:49:04.975Z,1.54
2023-02-21T23:50:04.937Z,1.54
2023-02-21T23:51:04.900Z,1.53
2023-02-21T23:52:04.868Z,1.49
2023-02-21T23:53:04.835Z,1.49
2023-02-21T23:54:04.807Z,1.47
2023-02-21T23:55:04.772Z,1.49
2023-02-21T23:56:04.735Z,1.50
2023-02-21T23:57:04.703Z,1.49
2023-02-21T23:58:04.725Z,1.46
2023-02-21T23:59:04.644Z,1.46
